VTUU/UBP METAR and TAF weather

Enter ICAO airport designator
Station Type Date Time Source
VTUU METAR 2020/01/24 03:00 UTC NOAA

VTUU 240300Z 17004KT 090V230 9000 NSC 28/19 Q1015 NOSIG


Station Type Date Time Source
VTUU Decoded METAR 2020/01/24 03:00 UTC NOAA

Ubon Ratchathani, Thailand (VTUU) 15-15N 104-52E 127M
Jan 23, 2020 - 10:00 PM EST / 2020.01.24 0300 UTC
Wind: from the S (170 degrees) at 5 MPH (4 KT) (direction variable):0
Visibility: 5 mile(s):0
Temperature: 82 F (28 C)
Dew Point: 66 F (19 C)
Relative Humidity: 58%
Pressure (altimeter): 29.97 in. Hg (1015 hPa)
ob: VTUU 240300Z 17004KT 090V230 9000 NSC 28/19 Q1015 NOSIG
cycle: 3

Station Type Date Time Source
VTUU TAF 2020/01/23 18:37 UTC NOAA

TAF VTUU 231700Z 2318/2418 18004KT 8000 NSC
BECMG 2321/2323 4000 BR
BECMG 2401/2403 9000 NSW

Example: see airport list